createdAt,value
2023-08-04T00:00:23.851Z,992.9
2023-08-04T00:01:40.851Z,992.8
2023-08-04T00:02:57.931Z,992.8
2023-08-04T00:04:14.754Z,992.8
2023-08-04T00:05:31.793Z,992.8
2023-08-04T00:06:48.802Z,992.8
2023-08-04T00:08:05.773Z,992.7
2023-08-04T00:09:22.741Z,992.8
2023-08-04T00:10:39.833Z,992.8
2023-08-04T00:11:56.776Z,992.8
2023-08-04T00:13:13.756Z,992.8
2023-08-04T00:14:30.878Z,992.9
2023-08-04T00:15:47.764Z,992.9
2023-08-04T00:17:04.861Z,992.9
2023-08-04T00:18:21.737Z,992.9
2023-08-04T00:19:38.876Z,992.9
2023-08-04T00:20:55.782Z,992.9
2023-08-04T00:22:12.831Z,992.9
2023-08-04T00:23:29.756Z,992.8
2023-08-04T00:24:46.785Z,992.7
2023-08-04T00:26:03.865Z,992.7
2023-08-04T00:27:20.813Z,992.7
2023-08-04T00:28:37.772Z,992.7
2023-08-04T00:29:54.830Z,992.7
2023-08-04T00:31:11.895Z,992.7
2023-08-04T00:32:28.869Z,992.8
2023-08-04T00:33:45.849Z,992.8
2023-08-04T00:35:02.874Z,992.8
2023-08-04T00:36:19.784Z,992.8
2023-08-04T00:37:36.947Z,992.9
2023-08-04T00:38:53.812Z,992.9
2023-08-04T00:40:10.933Z,992.9
2023-08-04T00:41:27.816Z,992.9
2023-08-04T00:42:44.970Z,992.9
2023-08-04T00:44:01.896Z,992.8
2023-08-04T00:45:18.809Z,992.8
2023-08-04T00:46:35.850Z,992.8
2023-08-04T00:47:52.886Z,992.8
2023-08-04T00:49:09.826Z,992.8
2023-08-04T00:50:26.915Z,992.8
2023-08-04T00:51:43.821Z,992.8
2023-08-04T00:53:00.784Z,992.8
2023-08-04T00:54:17.829Z,992.9
2023-08-04T00:55:34.835Z,992.8
2023-08-04T00:56:52.034Z,992.8
2023-08-04T00:58:08.888Z,992.8
2023-08-04T00:59:25.861Z,992.8
2023-08-04T01:00:43.172Z,992.8
2023-08-04T01:02:00.066Z,992.8
2023-08-04T01:03:16.881Z,992.8
2023-08-04T01:04:33.840Z,992.8
2023-08-04T01:05:50.847Z,992.8
2023-08-04T01:07:07.905Z,992.8
2023-08-04T01:08:24.961Z,992.9
2023-08-04T01:09:41.884Z,993
2023-08-04T01:10:58.876Z,993
2023-08-04T01:12:15.952Z,993
2023-08-04T01:13:32.862Z,993
2023-08-04T01:14:49.894Z,993
2023-08-04T01:16:06.911Z,993
2023-08-04T01:17:24.073Z,993
2023-08-04T01:18:40.906Z,993
2023-08-04T01:19:57.854Z,993
2023-08-04T01:21:14.909Z,993
2023-08-04T01:22:31.879Z,992.9
2023-08-04T01:23:49.171Z,992.9
2023-08-04T01:25:05.879Z,993
2023-08-04T01:26:22.962Z,993
2023-08-04T01:27:39.999Z,993
2023-08-04T01:28:56.881Z,993
2023-08-04T01:30:13.908Z,993
2023-08-04T01:31:30.969Z,993
2023-08-04T01:32:48.052Z,993
2023-08-04T01:34:04.956Z,993
2023-08-04T01:35:21.986Z,993.1
2023-08-04T01:36:38.908Z,993.1
2023-08-04T01:37:55.964Z,993.1
2023-08-04T01:39:12.920Z,993.1
2023-08-04T01:40:29.910Z,993.1
2023-08-04T01:41:47.269Z,993.2
2023-08-04T01:43:03.907Z,993.2
2023-08-04T01:44:20.934Z,993.2
2023-08-04T01:45:37.899Z,993.2
2023-08-04T01:46:54.993Z,993.2
2023-08-04T01:48:11.914Z,993.2
2023-08-04T01:49:28.953Z,993.3
2023-08-04T01:50:45.982Z,993.2
2023-08-04T01:52:02.962Z,993.2
2023-08-04T01:53:19.980Z,993.2
2023-08-04T01:54:36.947Z,993.2
2023-08-04T01:55:53.946Z,993.2
2023-08-04T01:57:10.937Z,993.2
2023-08-04T01:58:27.996Z,993.2
2023-08-04T01:59:44.949Z,993.2
2023-08-04T02:01:01.982Z,993.2
2023-08-04T02:02:18.957Z,993.2
2023-08-04T02:03:35.957Z,993.1
2023-08-04T02:04:52.976Z,993.1
2023-08-04T02:06:10.002Z,993.1
2023-08-04T02:07:26.947Z,993.1
2023-08-04T02:08:43.930Z,993.1
2023-08-04T02:10:00.962Z,993.2
2023-08-04T02:11:17.975Z,993.2
2023-08-04T02:12:34.935Z,993.2
2023-08-04T02:13:52.023Z,993.2
2023-08-04T02:15:09.086Z,993.2
2023-08-04T02:16:26.021Z,993.2
2023-08-04T02:17:43.022Z,993.2
2023-08-04T02:18:59.960Z,993.2
2023-08-04T02:20:16.990Z,993.3
2023-08-04T02:21:34.011Z,993.3
2023-08-04T02:22:51.032Z,993.3
2023-08-04T02:24:08.043Z,993.3
2023-08-04T02:25:24.961Z,993.3
2023-08-04T02:26:42.029Z,993.3
2023-08-04T02:27:59.051Z,993.4
2023-08-04T02:29:15.991Z,993.4
2023-08-04T02:30:33.047Z,993.5
2023-08-04T02:31:50.281Z,993.5
2023-08-04T02:33:06.999Z,993.5
2023-08-04T02:34:24.252Z,993.6
2023-08-04T02:35:41.047Z,993.6
2023-08-04T02:36:57.999Z,993.7
2023-08-04T02:38:15.063Z,993.7
2023-08-04T02:39:32.093Z,993.7
2023-08-04T02:40:48.988Z,993.8
2023-08-04T02:42:06.011Z,993.7
2023-08-04T02:43:23.007Z,993.7
2023-08-04T02:44:40.099Z,993.6
2023-08-04T02:45:57.045Z,993.6
2023-08-04T02:47:14.041Z,993.6
2023-08-04T02:48:31.036Z,993.6
2023-08-04T02:49:48.029Z,993.6
2023-08-04T02:51:05.004Z,993.6
2023-08-04T02:52:22.119Z,993.6
2023-08-04T02:53:39.060Z,993.6
2023-08-04T02:54:56.060Z,993.6
2023-08-04T02:56:13.027Z,993.7
2023-08-04T02:57:30.043Z,993.7
2023-08-04T02:58:47.041Z,993.7
2023-08-04T03:00:04.125Z,993.7
2023-08-04T03:01:21.094Z,993.7
2023-08-04T03:02:38.209Z,993.7
2023-08-04T03:03:55.117Z,993.7
2023-08-04T03:05:12.054Z,993.7
2023-08-04T03:06:29.061Z,993.8
2023-08-04T03:07:46.082Z,993.8
2023-08-04T03:09:03.023Z,993.8
2023-08-04T03:10:20.028Z,993.9
2023-08-04T03:11:37.054Z,993.9
2023-08-04T03:12:54.069Z,993.9
2023-08-04T03:14:11.042Z,993.9
2023-08-04T03:15:28.132Z,993.9
2023-08-04T03:16:45.094Z,993.9
2023-08-04T03:18:02.095Z,993.9
2023-08-04T03:19:19.048Z,993.9
2023-08-04T03:20:36.045Z,993.9
2023-08-04T03:21:53.164Z,993.9
2023-08-04T03:23:10.089Z,993.9
2023-08-04T03:24:27.066Z,993.9
2023-08-04T03:25:44.051Z,993.9
2023-08-04T03:27:01.061Z,993.8
2023-08-04T03:28:18.110Z,993.8
2023-08-04T03:29:35.104Z,993.8
2023-08-04T03:30:52.137Z,993.8
2023-08-04T03:32:09.071Z,993.8
2023-08-04T03:33:26.174Z,993.8
2023-08-04T03:34:43.163Z,993.8
2023-08-04T03:36:00.123Z,993.8
2023-08-04T03:37:17.169Z,993.9
2023-08-04T03:38:34.110Z,993.9
2023-08-04T03:39:51.066Z,994
2023-08-04T03:41:08.084Z,994
2023-08-04T03:42:25.116Z,994
2023-08-04T03:43:42.189Z,994
2023-08-04T03:44:59.084Z,994
2023-08-04T03:46:16.202Z,994
2023-08-04T03:47:33.201Z,994
2023-08-04T03:48:50.205Z,994
2023-08-04T03:50:07.094Z,994
2023-08-04T03:51:24.119Z,994
2023-08-04T03:52:41.197Z,994
2023-08-04T03:53:58.125Z,994
2023-08-04T03:55:15.129Z,994
2023-08-04T03:56:32.183Z,994
2023-08-04T03:57:49.159Z,994
2023-08-04T03:59:06.135Z,994
2023-08-04T04:00:23.160Z,994
2023-08-04T04:01:40.180Z,994
2023-08-04T04:02:57.185Z,994
2023-08-04T04:04:14.153Z,994
2023-08-04T04:05:31.120Z,994
2023-08-04T04:06:48.230Z,994
2023-08-04T04:08:05.189Z,994
2023-08-04T04:09:22.212Z,994
2023-08-04T04:10:39.123Z,994.1
2023-08-04T04:11:56.143Z,994
2023-08-04T04:13:13.200Z,994
2023-08-04T04:14:30.130Z,994
2023-08-04T04:15:47.160Z,993.9
2023-08-04T04:17:04.174Z,994
2023-08-04T04:18:21.160Z,994
2023-08-04T04:19:38.164Z,994
2023-08-04T04:20:55.299Z,994
2023-08-04T04:22:12.309Z,994
2023-08-04T04:23:29.154Z,994
2023-08-04T04:24:46.295Z,994.1
2023-08-04T04:26:05.542Z,994.1
2023-08-04T04:27:20.241Z,994.1
2023-08-04T04:28:37.265Z,994.2
2023-08-04T04:29:54.181Z,994.2
2023-08-04T04:31:11.341Z,994.3
2023-08-04T04:32:28.271Z,994.3
2023-08-04T04:33:45.186Z,994.3
2023-08-04T04:35:02.243Z,994.3
2023-08-04T04:36:19.242Z,994.4
2023-08-04T04:37:36.290Z,994.3
2023-08-04T04:38:53.426Z,994.3
2023-08-04T04:40:10.213Z,994.3
2023-08-04T04:41:27.273Z,994.2
2023-08-04T04:42:44.214Z,994.2
2023-08-04T04:44:01.220Z,994.2
2023-08-04T04:45:18.251Z,994.2
2023-08-04T04:46:35.332Z,994.2
2023-08-04T04:47:52.264Z,994.2
2023-08-04T04:49:09.266Z,994.2
2023-08-04T04:50:26.263Z,994.2
2023-08-04T04:51:43.304Z,994.2
2023-08-04T04:53:00.237Z,994.2
2023-08-04T04:54:17.301Z,994.2
2023-08-04T04:55:34.236Z,994.2
2023-08-04T04:56:51.225Z,994.2
2023-08-04T04:58:08.235Z,994.3
2023-08-04T04:59:25.277Z,994.3
2023-08-04T05:00:42.245Z,994.4
2023-08-04T05:01:59.290Z,994.4
2023-08-04T05:03:16.339Z,994.4
2023-08-04T05:04:33.324Z,994.4
2023-08-04T05:05:50.261Z,994.4
2023-08-04T05:07:07.296Z,994.4
2023-08-04T05:08:24.359Z,994.3
2023-08-04T05:09:41.342Z,994.4
2023-08-04T05:10:58.255Z,994.4
2023-08-04T05:12:15.304Z,994.4
2023-08-04T05:13:32.296Z,994.5
2023-08-04T05:14:49.331Z,994.5
2023-08-04T05:16:06.304Z,994.5
2023-08-04T05:17:23.353Z,994.5
2023-08-04T05:18:40.259Z,994.5
2023-08-04T05:19:57.295Z,994.5
2023-08-04T05:21:14.264Z,994.4
2023-08-04T05:22:31.379Z,994.4
2023-08-04T05:23:48.339Z,994.4
2023-08-04T05:25:10.756Z,994.4
2023-08-04T05:26:22.269Z,994.5
2023-08-04T05:27:39.537Z,994.5
2023-08-04T05:28:56.315Z,994.5
2023-08-04T05:30:13.293Z,994.6
2023-08-04T05:31:30.306Z,994.6
2023-08-04T05:32:47.326Z,994.6
2023-08-04T05:34:04.334Z,994.6
2023-08-04T05:35:21.308Z,994.6
2023-08-04T05:36:38.642Z,994.6
2023-08-04T05:37:55.355Z,994.6
2023-08-04T05:39:12.295Z,994.7
2023-08-04T05:40:29.357Z,994.7
2023-08-04T05:41:46.501Z,994.7
2023-08-04T05:43:03.372Z,994.7
2023-08-04T05:44:20.392Z,994.7
2023-08-04T05:45:37.502Z,994.6
2023-08-04T05:46:54.347Z,994.6
2023-08-04T05:48:11.370Z,994.6
2023-08-04T05:49:28.394Z,994.6
2023-08-04T05:50:45.333Z,994.6
2023-08-04T05:52:02.414Z,994.6
2023-08-04T05:53:19.329Z,994.6
2023-08-04T05:54:36.356Z,994.6
2023-08-04T05:55:53.304Z,994.6
2023-08-04T05:57:10.377Z,994.6
2023-08-04T05:58:27.310Z,994.6
2023-08-04T05:59:44.372Z,994.6
2023-08-04T06:01:01.525Z,994.7
2023-08-04T06:02:18.451Z,994.7
2023-08-04T06:03:35.420Z,994.7
2023-08-04T06:04:52.361Z,994.7
2023-08-04T06:06:09.447Z,994.7
2023-08-04T06:07:26.398Z,994.8
2023-08-04T06:08:43.351Z,994.8
2023-08-04T06:10:00.615Z,994.8
2023-08-04T06:11:17.568Z,994.8
2023-08-04T06:12:35.042Z,994.8
2023-08-04T06:13:51.688Z,994.8
2023-08-04T06:15:08.474Z,994.9
2023-08-04T06:16:25.403Z,994.9
2023-08-04T06:17:42.804Z,994.9
2023-08-04T06:18:59.497Z,994.9
2023-08-04T06:20:16.563Z,994.9
2023-08-04T06:21:33.830Z,994.9
2023-08-04T06:22:50.380Z,994.9
2023-08-04T06:24:07.605Z,994.9
2023-08-04T06:25:24.826Z,994.8
2023-08-04T06:26:45.282Z,994.8
2023-08-04T06:28:02.410Z,994.8
2023-08-04T06:29:19.545Z,994.7
2023-08-04T06:30:39.718Z,994.7
2023-08-04T06:31:54.576Z,994.5
2023-08-04T06:33:11.504Z,994.4
2023-08-04T06:34:28.381Z,994.3
2023-08-04T06:35:45.522Z,994.6
2023-08-04T06:37:02.528Z,994.7
2023-08-04T06:38:19.477Z,994.8
2023-08-04T06:39:36.429Z,994.9
2023-08-04T06:40:53.446Z,994.9
2023-08-04T06:42:10.392Z,995
2023-08-04T06:43:27.469Z,995
2023-08-04T06:44:44.435Z,995
2023-08-04T06:46:01.495Z,995
2023-08-04T06:47:18.384Z,995
2023-08-04T06:48:35.428Z,995.1
2023-08-04T06:49:52.397Z,995.1
2023-08-04T06:51:09.522Z,995.1
2023-08-04T06:52:26.473Z,995.1
2023-08-04T06:53:43.402Z,995.1
2023-08-04T06:55:00.711Z,995.1
2023-08-04T06:56:17.504Z,995
2023-08-04T06:57:34.472Z,995.1
2023-08-04T06:58:51.414Z,995.1
2023-08-04T07:00:08.580Z,995.1
2023-08-04T07:01:25.459Z,995.1
2023-08-04T07:02:42.514Z,995.2
2023-08-04T07:03:59.470Z,995.3
2023-08-04T07:05:16.469Z,995.4
2023-08-04T07:06:33.457Z,995.4
2023-08-04T07:07:50.501Z,995.4
2023-08-04T07:09:07.434Z,995.5
2023-08-04T07:10:24.436Z,995.4
2023-08-04T07:11:41.482Z,995.5
2023-08-04T07:12:58.873Z,995.5
2023-08-04T07:14:15.586Z,995.6
2023-08-04T07:15:32.592Z,995.5
2023-08-04T07:16:49.631Z,995.2
2023-08-04T07:18:06.606Z,995.3
2023-08-04T07:19:23.723Z,995.1
2023-08-04T07:20:40.444Z,995
2023-08-04T07:21:57.477Z,995
2023-08-04T07:23:14.526Z,994.9
2023-08-04T07:24:32.478Z,995
2023-08-04T07:25:48.508Z,995
2023-08-04T07:27:05.565Z,995
2023-08-04T07:28:22.473Z,995
2023-08-04T07:29:39.506Z,995
2023-08-04T07:30:56.602Z,995
2023-08-04T07:32:13.601Z,995
2023-08-04T07:33:30.568Z,995
2023-08-04T07:34:47.598Z,995
2023-08-04T07:36:04.581Z,995.1
2023-08-04T07:37:21.543Z,995.1
2023-08-04T07:38:38.600Z,995.1
2023-08-04T07:39:55.509Z,995.2
2023-08-04T07:41:12.625Z,995.2
2023-08-04T07:42:29.591Z,995.3
2023-08-04T07:43:46.607Z,995.2
2023-08-04T07:45:03.506Z,995.2
2023-08-04T07:46:20.593Z,995.2
2023-08-04T07:47:37.570Z,995.3
2023-08-04T07:48:54.551Z,995.3
2023-08-04T07:50:11.616Z,995.2
2023-08-04T07:51:28.674Z,995.2
2023-08-04T07:52:45.568Z,995.2
2023-08-04T07:54:02.564Z,995.3
2023-08-04T07:55:19.642Z,995.3
2023-08-04T07:56:36.578Z,995.2
2023-08-04T07:57:56.676Z,995.2
2023-08-04T07:59:13.856Z,995.2
2023-08-04T08:00:31.804Z,995.2
2023-08-04T08:01:49.111Z,995.2
2023-08-04T08:03:05.647Z,995.2
2023-08-04T08:04:25.540Z,995.3
2023-08-04T08:05:42.726Z,995.2
2023-08-04T08:06:59.901Z,995.3
2023-08-04T08:08:16.791Z,995.3
2023-08-04T08:09:33.761Z,995.3
2023-08-04T08:10:54.302Z,995.3
2023-08-04T08:12:15.882Z,995.3
2023-08-04T08:13:32.613Z,995.3
2023-08-04T08:14:52.890Z,995.3
2023-08-04T08:16:10.690Z,995.3
2023-08-04T08:17:27.652Z,995.3
2023-08-04T08:18:44.847Z,995.3
2023-08-04T08:20:01.128Z,995.3
2023-08-04T08:21:17.772Z,995.3
2023-08-04T08:22:34.002Z,995.3
2023-08-04T08:23:50.639Z,995.3
2023-08-04T08:25:07.671Z,995.7
2023-08-04T08:26:24.715Z,995.8
2023-08-04T08:27:41.846Z,995.8
2023-08-04T08:28:58.775Z,995.6
2023-08-04T08:30:16.106Z,995.4
2023-08-04T08:31:32.739Z,995.4
2023-08-04T08:32:49.669Z,995.4
2023-08-04T08:34:06.621Z,995.3
2023-08-04T08:35:23.650Z,995.6
2023-08-04T08:36:40.974Z,995.5
2023-08-04T08:37:57.888Z,995.4
2023-08-04T08:39:14.888Z,995.4
2023-08-04T08:40:31.701Z,995.4
2023-08-04T08:41:49.274Z,995.3
2023-08-04T08:43:05.646Z,995.3
2023-08-04T08:44:22.248Z,995.3
2023-08-04T08:45:39.712Z,995.4
2023-08-04T08:46:56.102Z,995.4
2023-08-04T08:48:15.794Z,995.4
2023-08-04T08:49:32.973Z,995.4
2023-08-04T08:50:49.720Z,995.5
2023-08-04T08:52:06.797Z,995.5
2023-08-04T08:53:23.708Z,995.6
2023-08-04T08:54:40.665Z,995.7
2023-08-04T08:55:57.774Z,995.6
2023-08-04T08:57:16.265Z,995.7
2023-08-04T08:58:32.647Z,995.7
2023-08-04T08:59:49.724Z,995.7
2023-08-04T09:01:06.008Z,995.7
2023-08-04T09:02:22.881Z,995.7
2023-08-04T09:03:41.960Z,995.7
2023-08-04T09:04:58.678Z,995.7
2023-08-04T09:06:16.400Z,995.7
2023-08-04T09:07:33.177Z,995.7
2023-08-04T09:08:49.711Z,995.9
2023-08-04T09:10:06.734Z,995.9
2023-08-04T09:11:23.727Z,996
2023-08-04T09:12:40.672Z,996.1
2023-08-04T09:13:57.972Z,995.9
2023-08-04T09:15:14.949Z,996
2023-08-04T09:16:31.796Z,996.1
2023-08-04T09:17:48.882Z,996
2023-08-04T09:19:05.900Z,995.9
2023-08-04T09:20:22.691Z,995.8
2023-08-04T09:21:39.070Z,995.8
2023-08-04T09:22:55.842Z,995.8
2023-08-04T09:24:12.744Z,995.9
2023-08-04T09:25:29.795Z,995.8
2023-08-04T09:26:46.719Z,995.8
2023-08-04T09:28:03.723Z,995.8
2023-08-04T09:29:20.976Z,995.8
2023-08-04T09:30:37.855Z,995.9
2023-08-04T09:31:54.804Z,995.9
2023-08-04T09:33:11.773Z,995.9
2023-08-04T09:34:28.867Z,995.9
2023-08-04T09:35:45.773Z,995.9
2023-08-04T09:37:02.121Z,995.9
2023-08-04T09:38:18.834Z,996
2023-08-04T09:39:35.116Z,996
2023-08-04T09:40:51.749Z,996
2023-08-04T09:42:08.112Z,996
2023-08-04T09:43:24.958Z,996
2023-08-04T09:44:41.318Z,995.9
2023-08-04T09:45:58.003Z,995.9
2023-08-04T09:47:14.862Z,995.9
2023-08-04T09:48:31.851Z,995.9
2023-08-04T09:49:48.792Z,995.9
2023-08-04T09:51:05.948Z,995.9
2023-08-04T09:52:22.765Z,995.9
2023-08-04T09:53:39.195Z,995.9
2023-08-04T09:54:55.156Z,995.8
2023-08-04T09:56:11.235Z,995.8
2023-08-04T09:57:27.163Z,995.8
2023-08-04T09:58:43.178Z,995.9
2023-08-04T09:59:59.789Z,996
2023-08-04T10:01:16.792Z,996
2023-08-04T10:02:33.993Z,996.1
2023-08-04T10:03:50.221Z,996
2023-08-04T10:05:06.806Z,995.9
2023-08-04T10:06:23.799Z,996.1
2023-08-04T10:07:40.807Z,996
2023-08-04T10:08:57.839Z,996
2023-08-04T10:10:14.817Z,996
2023-08-04T10:11:31.211Z,996
2023-08-04T10:12:47.172Z,995.9
2023-08-04T10:14:03.329Z,996
2023-08-04T10:15:22.187Z,996
2023-08-04T10:16:36.861Z,996.1
2023-08-04T10:17:53.844Z,996.1
2023-08-04T10:19:10.834Z,996
2023-08-04T10:20:27.166Z,996
2023-08-04T10:21:43.422Z,995.9
2023-08-04T10:23:00.881Z,995.9
2023-08-04T10:24:17.826Z,995.9
2023-08-04T10:25:34.854Z,996
2023-08-04T10:26:52.085Z,995.9
2023-08-04T10:28:09.178Z,995.9
2023-08-04T10:29:26.167Z,995.9
2023-08-04T10:30:49.467Z,995.8
2023-08-04T10:31:59.780Z,995.8
2023-08-04T10:33:15.895Z,995.8
2023-08-04T10:34:32.961Z,995.8
2023-08-04T10:35:49.834Z,995.8
2023-08-04T10:37:07.276Z,995.8
2023-08-04T10:38:23.205Z,995.7
2023-08-04T10:39:39.203Z,995.7
2023-08-04T10:40:55.467Z,995.7
2023-08-04T10:42:11.274Z,995.7
2023-08-04T10:43:27.358Z,995.6
2023-08-04T10:44:44.429Z,995.6
2023-08-04T10:46:01.268Z,995.6
2023-08-04T10:47:18.096Z,995.7
2023-08-04T10:48:34.353Z,995.7
2023-08-04T10:49:51.303Z,995.8
2023-08-04T10:51:07.303Z,995.8
2023-08-04T10:52:23.217Z,995.9
2023-08-04T10:53:39.245Z,995.9
2023-08-04T10:54:55.405Z,995.9
2023-08-04T10:56:11.522Z,995.9
2023-08-04T10:57:27.255Z,995.9
2023-08-04T10:58:43.299Z,995.9
2023-08-04T10:59:59.344Z,995.9
2023-08-04T11:01:15.424Z,995.9
2023-08-04T11:02:32.044Z,995.9
2023-08-04T11:03:48.697Z,995.9
2023-08-04T11:05:06.165Z,996
2023-08-04T11:06:22.966Z,996
2023-08-04T11:07:39.913Z,996.1
2023-08-04T11:08:57.354Z,996.1
2023-08-04T11:10:14.221Z,996.1
2023-08-04T11:11:30.973Z,996.1
2023-08-04T11:12:47.962Z,996
2023-08-04T11:14:05.132Z,996.1
2023-08-04T11:15:21.925Z,996.1
2023-08-04T11:16:38.945Z,996
2023-08-04T11:17:56.371Z,996
2023-08-04T11:19:12.971Z,996
2023-08-04T11:21:53.228Z,996.1
2023-08-04T11:23:13.858Z,996.1
2023-08-04T11:24:31.019Z,996.2
2023-08-04T11:25:48.121Z,996.2
2023-08-04T11:27:10.879Z,996.2
2023-08-04T11:28:34.093Z,996.2
2023-08-04T11:29:51.051Z,996.1
2023-08-04T11:31:10.287Z,996.2
2023-08-04T11:32:29.847Z,996.2
2023-08-04T11:33:48.028Z,996.2
2023-08-04T11:35:05.098Z,996.2
2023-08-04T11:36:22.049Z,996.3
2023-08-04T11:37:39.017Z,996.3
2023-08-04T11:38:56.167Z,996.2
2023-08-04T11:40:13.081Z,996.2
2023-08-04T11:41:30.022Z,996.3
2023-08-04T11:42:46.970Z,996.3
2023-08-04T11:44:04.114Z,996.3
2023-08-04T11:45:21.066Z,996.3
2023-08-04T11:46:38.104Z,996.3
2023-08-04T11:47:55.044Z,996.3
2023-08-04T11:49:11.975Z,996.3
2023-08-04T11:50:28.977Z,996.3
2023-08-04T11:51:46.506Z,996.4
2023-08-04T11:53:03.022Z,996.3
2023-08-04T11:54:20.174Z,996.3
2023-08-04T11:55:37.083Z,996.3
2023-08-04T11:56:54.014Z,996.3
2023-08-04T11:58:11.021Z,996.4
2023-08-04T11:59:28.106Z,996.4
2023-08-04T12:00:45.017Z,996.4
2023-08-04T12:02:07.031Z,996.4
2023-08-04T12:03:19.162Z,996.4
2023-08-04T12:04:36.575Z,996.4
2023-08-04T12:05:53.071Z,996.3
2023-08-04T12:07:09.419Z,996.2
2023-08-04T12:08:26.004Z,996.2
2023-08-04T12:09:42.406Z,996.2
2023-08-04T12:10:58.641Z,996.2
2023-08-04T12:12:16.068Z,996.1
2023-08-04T12:13:33.021Z,996.2
2023-08-04T12:15:00.505Z,996.2
2023-08-04T12:16:05.612Z,996.2
2023-08-04T12:17:22.502Z,996.2
2023-08-04T12:18:39.064Z,996.2
2023-08-04T12:19:56.175Z,996.2
2023-08-04T12:21:12.404Z,996.1
2023-08-04T12:22:28.478Z,996.1
2023-08-04T12:23:44.623Z,996.1
2023-08-04T12:25:00.422Z,996.1
2023-08-04T12:26:17.551Z,996.2
2023-08-04T12:27:34.150Z,996.1
2023-08-04T12:28:50.467Z,996.2
2023-08-04T12:30:07.129Z,996.2
2023-08-04T12:31:24.658Z,996.3
2023-08-04T12:32:42.225Z,996.4
2023-08-04T12:33:59.096Z,996.4
2023-08-04T12:35:16.616Z,996.3
2023-08-04T12:36:33.091Z,996.2
2023-08-04T12:37:50.195Z,996.1
2023-08-04T12:39:07.177Z,996.1
2023-08-04T12:40:24.206Z,996.1
2023-08-04T12:41:41.297Z,996.1
2023-08-04T12:42:58.060Z,996.2
2023-08-04T12:44:15.184Z,996.2
2023-08-04T12:45:31.806Z,996.3
2023-08-04T12:46:48.155Z,996.3
2023-08-04T12:48:05.289Z,996.3
2023-08-04T12:49:22.272Z,996.3
2023-08-04T12:50:38.523Z,996.3
2023-08-04T12:51:55.546Z,996.3
2023-08-04T12:53:10.698Z,996.3
2023-08-04T12:54:27.096Z,996.3
2023-08-04T12:55:44.274Z,996.3
2023-08-04T12:57:00.494Z,996.3
2023-08-04T12:58:17.387Z,996.3
2023-08-04T12:59:34.193Z,996.4
2023-08-04T13:00:51.207Z,996.4
2023-08-04T13:02:08.283Z,996.4
2023-08-04T13:03:25.175Z,996.4
2023-08-04T13:04:42.233Z,996.4
2023-08-04T13:05:59.224Z,996.4
2023-08-04T13:07:16.133Z,996.4
2023-08-04T13:08:33.209Z,996.4
2023-08-04T13:09:49.498Z,996.4
2023-08-04T13:11:05.512Z,996.4
2023-08-04T13:12:21.487Z,996.5
2023-08-04T13:13:37.755Z,996.5
2023-08-04T13:14:55.111Z,996.6
2023-08-04T13:16:11.932Z,996.6
2023-08-04T13:17:28.307Z,996.7
2023-08-04T13:18:45.120Z,996.7
2023-08-04T13:20:02.184Z,996.7
2023-08-04T13:21:19.156Z,996.7
2023-08-04T13:22:36.197Z,996.7
2023-08-04T13:23:54.349Z,996.7
2023-08-04T13:25:11.379Z,996.7
2023-08-04T13:26:28.115Z,996.7
2023-08-04T13:27:45.452Z,996.8
2023-08-04T13:29:02.233Z,996.8
2023-08-04T13:30:19.211Z,996.8
2023-08-04T13:31:39.705Z,996.8
2023-08-04T13:32:57.548Z,996.9
2023-08-04T13:34:15.509Z,996.9
2023-08-04T13:35:35.639Z,996.9
2023-08-04T13:36:53.523Z,996.9
2023-08-04T13:38:11.670Z,996.9
2023-08-04T13:39:30.581Z,996.9
2023-08-04T13:40:49.693Z,996.9
2023-08-04T13:42:07.668Z,996.9
2023-08-04T13:43:28.583Z,996.9
2023-08-04T13:44:46.877Z,996.9
2023-08-04T13:46:06.010Z,996.9
2023-08-04T13:47:30.526Z,996.9
2023-08-04T13:48:48.661Z,996.9
2023-08-04T13:50:10.372Z,996.9
2023-08-04T13:51:28.509Z,996.9
2023-08-04T13:52:47.839Z,996.9
2023-08-04T13:54:08.591Z,996.8
2023-08-04T13:55:27.258Z,996.9
2023-08-04T13:56:44.825Z,996.9
2023-08-04T13:58:03.756Z,996.9
2023-08-04T13:59:20.242Z,996.8
2023-08-04T14:00:44.235Z,996.9
2023-08-04T14:02:02.109Z,996.9
2023-08-04T14:03:33.318Z,996.9
2023-08-04T14:04:51.749Z,996.9
2023-08-04T14:06:12.006Z,997
2023-08-04T14:07:33.290Z,996.9
2023-08-04T14:08:51.632Z,996.9
2023-08-04T14:10:09.625Z,996.8
2023-08-04T14:11:29.670Z,996.9
2023-08-04T14:12:47.833Z,996.9
2023-08-04T14:14:05.989Z,996.9
2023-08-04T14:15:25.408Z,996.9
2023-08-04T14:16:46.138Z,996.8
2023-08-04T14:18:03.785Z,996.8
2023-08-04T14:19:22.039Z,996.8
2023-08-04T14:20:43.880Z,996.8
2023-08-04T14:22:03.802Z,996.8
2023-08-04T14:23:22.015Z,996.8
2023-08-04T14:24:44.901Z,996.9
2023-08-04T14:26:05.719Z,996.8
2023-08-04T14:27:31.524Z,996.9
2023-08-04T14:28:45.450Z,996.9
2023-08-04T14:30:03.792Z,996.9
2023-08-04T14:31:24.792Z,997
2023-08-04T14:32:45.858Z,997
2023-08-04T14:34:04.616Z,997
2023-08-04T14:35:28.779Z,997
2023-08-04T14:36:50.569Z,997
2023-08-04T14:38:11.629Z,997
2023-08-04T14:39:33.910Z,997.1
2023-08-04T14:40:52.632Z,997.1
2023-08-04T14:42:15.804Z,997.1
2023-08-04T14:43:35.497Z,997.1
2023-08-04T14:44:53.804Z,997.1
2023-08-04T14:46:12.900Z,997
2023-08-04T14:47:34.736Z,997
2023-08-04T14:48:53.940Z,997
2023-08-04T14:50:11.794Z,997
2023-08-04T14:51:39.768Z,997
2023-08-04T14:52:58.872Z,997
2023-08-04T14:54:17.644Z,997
2023-08-04T14:55:37.806Z,997
2023-08-04T14:56:55.783Z,997
2023-08-04T14:58:14.785Z,997.1
2023-08-04T14:59:34.832Z,997.1
2023-08-04T15:00:53.890Z,997.1
2023-08-04T15:02:12.725Z,997
2023-08-04T15:03:31.711Z,997
2023-08-04T15:05:03.555Z,997
2023-08-04T15:06:22.497Z,997
2023-08-04T15:07:48.970Z,997
2023-08-04T15:09:16.622Z,997
2023-08-04T15:10:37.990Z,996.9
2023-08-04T15:11:56.725Z,996.9
2023-08-04T15:13:27.978Z,996.9
2023-08-04T15:14:47.095Z,996.9
2023-08-04T15:16:05.705Z,996.9
2023-08-04T15:17:36.096Z,996.9
2023-08-04T15:18:56.003Z,996.9
2023-08-04T15:20:13.877Z,996.9
2023-08-04T15:21:37.475Z,997
2023-08-04T15:23:01.863Z,997
2023-08-04T15:24:20.903Z,996.9
2023-08-04T15:25:44.751Z,996.9
2023-08-04T15:27:03.801Z,996.9
2023-08-04T15:28:22.818Z,996.9
2023-08-04T15:29:41.759Z,996.9
2023-08-04T15:31:03.215Z,996.9
2023-08-04T15:32:24.027Z,996.9
2023-08-04T15:33:45.773Z,996.9
2023-08-04T15:35:04.841Z,996.9
2023-08-04T15:36:25.092Z,996.9
2023-08-04T15:37:46.488Z,996.9
2023-08-04T15:39:06.833Z,996.8
2023-08-04T15:40:27.816Z,996.9
2023-08-04T15:41:56.600Z,996.9
2023-08-04T15:43:17.808Z,996.9
2023-08-04T15:44:35.930Z,996.9
2023-08-04T15:45:56.795Z,996.8
2023-08-04T15:47:20.836Z,996.9
2023-08-04T15:48:41.919Z,996.9
2023-08-04T15:50:00.080Z,996.8
2023-08-04T15:51:19.773Z,996.8
2023-08-04T15:52:49.806Z,996.8
2023-08-04T15:54:11.683Z,996.8
2023-08-04T15:55:34.452Z,996.8
2023-08-04T15:56:53.813Z,996.8
2023-08-04T15:58:13.882Z,996.8
2023-08-04T15:59:31.428Z,996.8
2023-08-04T16:00:48.434Z,996.7
2023-08-04T16:02:05.432Z,996.8
2023-08-04T16:03:22.431Z,996.7
2023-08-04T16:04:39.507Z,996.7
2023-08-04T16:05:56.435Z,996.7
2023-08-04T16:07:13.543Z,996.8
2023-08-04T16:08:30.453Z,996.8
2023-08-04T16:09:47.443Z,996.8
2023-08-04T16:11:04.446Z,996.8
2023-08-04T16:12:21.444Z,996.8
2023-08-04T16:13:38.478Z,996.8
2023-08-04T16:14:55.504Z,996.8
2023-08-04T16:16:12.493Z,996.8
2023-08-04T16:17:29.551Z,996.8
2023-08-04T16:18:46.529Z,996.8
2023-08-04T16:20:03.575Z,996.7
2023-08-04T16:21:20.724Z,996.7
2023-08-04T16:22:37.577Z,996.8
2023-08-04T16:23:54.470Z,996.8
2023-08-04T16:25:11.565Z,996.8
2023-08-04T16:26:28.542Z,996.8
2023-08-04T16:27:45.506Z,996.8
2023-08-04T16:29:02.459Z,996.8
2023-08-04T16:30:19.611Z,996.8
2023-08-04T16:31:36.555Z,996.8
2023-08-04T16:32:53.561Z,996.8
2023-08-04T16:34:10.525Z,996.9
2023-08-04T16:35:27.498Z,996.9
2023-08-04T16:36:44.648Z,996.9
2023-08-04T16:38:01.547Z,997
2023-08-04T16:39:18.502Z,997
2023-08-04T16:40:35.570Z,997
2023-08-04T16:41:52.661Z,997.1
2023-08-04T16:43:09.537Z,997.1
2023-08-04T16:44:26.539Z,997.1
2023-08-04T16:45:43.560Z,997.1
2023-08-04T16:47:00.678Z,997.1
2023-08-04T16:48:17.531Z,997.1
2023-08-04T16:49:34.507Z,997.1